Time;durP1;ratioP1;P1;durP2;ratioP2;P2;SDS_P1;SDS_P2;PMS_P1;PMS_P2;Temp;Humidity;BMP_temperature;BMP_pressure;BME280_temperature;BME280_humidity;BME280_pressure;Samples;Min_cycle;Max_cycle;Signal;HPM_P1;HPM_P2
2022/07/28 00:05:34;;;;;;;1.98;0.80;;;20.40;48.70;;;;;;20753184;28;20125;-77
2022/07/28 00:15:35;;;;;;;3.58;1.10;;;20.30;48.70;;;;;;20717537;28;20037;-76
2022/07/28 00:25:36;;;;;;;2.83;0.70;;;20.30;48.70;;;;;;20719009;28;20115;-77
2022/07/28 00:35:36;;;;;;;1.48;0.63;;;20.20;48.60;;;;;;20717426;28;20048;-76
2022/07/28 00:45:37;;;;;;;2.45;0.80;;;20.10;48.50;;;;;;20716061;28;20038;-77
2022/07/28 00:55:38;;;;;;;2.78;0.85;;;20.10;48.40;;;;;;20714917;28;20184;-77
2022/07/28 01:05:43;;;;;;;1.83;0.65;;;20.00;48.30;;;;;;21154887;23;20450;-80
2022/07/28 01:15:56;;;;;;;1.55;0.70;;;19.90;48.30;;;;;;20816511;28;20029;-78
2022/07/28 01:26:34;;;;;;;1.33;0.68;;;19.80;48.20;;;;;;20813038;28;20040;-79
2022/07/28 01:36:41;;;;;;;1.30;0.68;;;19.80;48.20;;;;;;20844430;28;20384;-81
2022/07/28 01:46:42;;;;;;;0.70;0.60;;;19.70;48.00;;;;;;20811494;28;20481;-79
2022/07/28 01:56:43;;;;;;;3.90;0.80;;;19.60;47.90;;;;;;20826470;28;20094;-79
2022/07/28 02:06:43;;;;;;;1.20;0.60;;;19.50;47.90;;;;;;20826284;28;20111;-79
2022/07/28 02:16:47;;;;;;;1.63;0.60;;;19.50;47.80;;;;;;20822711;28;20451;-79
2022/07/28 02:26:50;;;;;;;1.08;0.50;;;19.40;47.70;;;;;;20773395;28;20061;-79
2022/07/28 02:36:56;;;;;;;2.53;0.70;;;19.30;47.60;;;;;;20755388;28;20061;-79
2022/07/28 02:46:57;;;;;;;1.48;0.73;;;19.20;47.50;;;;;;20824665;28;20069;-79
2022/07/28 02:56:58;;;;;;;3.90;0.70;;;19.20;47.60;;;;;;20749384;28;20044;-79
2022/07/28 03:06:59;;;;;;;1.00;0.63;;;19.10;47.40;;;;;;20801955;28;20042;-79
2022/07/28 03:16:59;;;;;;;0.65;0.52;;;19.00;47.30;;;;;;20762362;28;20038;-79
2022/07/28 03:27:04;;;;;;;1.40;0.65;;;19.00;47.20;;;;;;20741029;28;20065;-80
2022/07/28 03:37:09;;;;;;;2.35;0.60;;;18.90;47.10;;;;;;20834620;28;20034;-78
2022/07/28 03:47:09;;;;;;;0.93;0.45;;;18.80;47.10;;;;;;20819834;28;20037;-78
2022/07/28 03:57:10;;;;;;;1.20;0.80;;;18.70;47.10;;;;;;20836355;28;20064;-79
2022/07/28 04:07:10;;;;;;;0.63;0.63;;;18.60;47.10;;;;;;20831212;28;20033;-78
2022/07/28 04:17:11;;;;;;;0.50;0.50;;;18.50;47.10;;;;;;20817411;28;20072;-79
2022/07/28 04:27:12;;;;;;;2.20;0.80;;;18.50;47.90;;;;;;20816629;28;20095;-79
2022/07/28 04:37:15;;;;;;;2.42;1.15;;;18.50;47.60;;;;;;20816397;28;20034;-78
2022/07/28 04:47:16;;;;;;;3.05;0.70;;;18.50;47.90;;;;;;20799540;28;20034;-78
2022/07/28 04:57:16;;;;;;;1.70;1.00;;;18.40;48.30;;;;;;20815813;28;20116;-79
2022/07/28 05:07:17;;;;;;;2.30;0.88;;;18.30;49.30;;;;;;20811835;28;20095;-79
2022/07/28 05:17:18;;;;;;;2.08;0.82;;;18.30;49.20;;;;;;20785969;28;20053;-80
2022/07/28 05:27:18;;;;;;;1.95;0.90;;;18.30;49.80;;;;;;20808411;28;20128;-76
2022/07/28 05:37:19;;;;;;;1.38;0.70;;;18.30;50.40;;;;;;20809065;28;20029;-80
2022/07/28 05:47:19;;;;;;;1.92;0.80;;;18.40;51.00;;;;;;20804853;28;20044;-74
2022/07/28 05:57:20;;;;;;;2.22;0.73;;;18.40;51.50;;;;;;20821286;28;20033;-75
2022/07/28 06:07:21;;;;;;;3.92;0.85;;;18.40;52.10;;;;;;20801237;28;20051;-73
2022/07/28 06:17:21;;;;;;;1.13;0.68;;;18.30;52.40;;;;;;20800152;28;20038;-74
2022/07/28 06:27:22;;;;;;;4.82;0.85;;;18.40;53.00;;;;;;20808985;28;20092;-75
2022/07/28 06:37:23;;;;;;;4.97;0.93;;;18.30;53.60;;;;;;20807949;28;20033;-75
2022/07/28 06:47:23;;;;;;;1.88;0.70;;;18.30;54.00;;;;;;20800877;28;20044;-75
2022/07/28 06:57:27;;;;;;;4.82;0.98;;;18.40;54.20;;;;;;20795933;28;20091;-75
2022/07/28 07:07:27;;;;;;;2.58;0.98;;;18.40;54.30;;;;;;20835997;28;20498;-78
2022/07/28 07:17:28;;;;;;;1.63;0.55;;;18.50;54.10;;;;;;20788355;28;20033;-78
2022/07/28 07:27:29;;;;;;;1.52;0.50;;;18.50;53.80;;;;;;20833116;28;20037;-73
2022/07/28 07:37:31;;;;;;;7.65;1.02;;;18.50;53.60;;;;;;20812914;28;20044;-76
2022/07/28 07:47:31;;;;;;;7.78;1.15;;;18.60;53.40;;;;;;20828902;28;20037;-76
2022/07/28 07:57:32;;;;;;;3.95;0.77;;;18.60;53.30;;;;;;20810151;28;20369;-78
2022/07/28 08:07:33;;;;;;;3.38;1.52;;;18.70;53.10;;;;;;20832345;28;20498;-78
2022/07/28 08:17:33;;;;;;;1.80;0.60;;;18.80;52.80;;;;;;20813433;28;20033;-81
2022/07/28 08:27:34;;;;;;;4.80;1.17;;;18.90;52.60;;;;;;20804684;28;20421;-83
2022/07/28 08:37:35;;;;;;;2.45;0.70;;;19.00;52.30;;;;;;20827050;28;20088;-80
2022/07/28 08:47:35;;;;;;;1.55;0.55;;;19.10;52.10;;;;;;20825067;28;20088;-80
2022/07/28 08:57:42;;;;;;;4.78;1.00;;;19.10;51.80;;;;;;20823492;28;20033;-82
2022/07/28 09:07:44;;;;;;;1.75;0.95;;;19.20;51.80;;;;;;20825110;28;20033;-80
2022/07/28 09:17:44;;;;;;;4.13;0.82;;;19.30;51.80;;;;;;20779969;28;20587;-79
2022/07/28 09:27:45;;;;;;;1.70;0.68;;;19.40;51.80;;;;;;20824880;28;20072;-82
2022/07/28 09:37:46;;;;;;;5.18;1.00;;;19.50;51.70;;;;;;20836258;28;20044;-77
2022/07/28 09:47:46;;;;;;;1.65;0.77;;;19.50;51.50;;;;;;20790225;28;20479;-76
2022/07/28 09:57:47;;;;;;;2.75;0.60;;;19.50;52.10;;;;;;20822017;28;20471;-76
2022/07/28 10:07:49;;;;;;;1.13;0.63;;;19.60;51.40;;;;;;20806734;28;20499;-81
2022/07/28 10:17:49;;;;;;;1.13;0.60;;;19.60;51.30;;;;;;20759959;28;20303;-77
2022/07/28 10:27:50;;;;;;;3.83;0.80;;;19.60;51.20;;;;;;20797798;28;20041;-74
2022/07/28 10:38:01;;;;;;;3.20;0.93;;;19.60;51.10;;;;;;20835681;28;20474;-79
2022/07/28 10:48:04;;;;;;;3.67;0.90;;;19.70;51.00;;;;;;20826004;28;20034;-80
2022/07/28 10:58:20;;;;;;;1.27;0.63;;;19.70;50.90;;;;;;20807015;28;20393;-82
2022/07/28 11:08:21;;;;;;;1.42;0.50;;;19.70;51.00;;;;;;20834768;28;20514;-77
2022/07/28 11:18:21;;;;;;;2.30;0.50;;;19.80;51.30;;;;;;20828398;28;20029;-78
2022/07/28 11:28:22;;;;;;;0.50;0.38;;;19.80;51.50;;;;;;20836566;28;20770;-76
2022/07/28 11:38:23;;;;;;;1.50;0.50;;;19.90;51.80;;;;;;20836969;28;20508;-78
2022/07/28 11:48:25;;;;;;;1.48;0.60;;;19.90;52.00;;;;;;20804360;28;20096;-76
2022/07/28 11:58:25;;;;;;;2.45;0.77;;;19.90;52.00;;;;;;20835299;28;20033;-77
2022/07/28 12:08:26;;;;;;;2.28;0.40;;;19.90;52.00;;;;;;20823864;28;20037;-73
2022/07/28 12:18:27;;;;;;;3.10;0.63;;;19.90;51.90;;;;;;20812747;28;20128;-79
2022/07/28 12:28:29;;;;;;;0.50;0.38;;;20.00;51.80;;;;;;20808072;28;20292;-76
2022/07/28 12:38:30;;;;;;;2.70;0.65;;;20.00;51.80;;;;;;20825832;28;20124;-71
2022/07/28 12:48:30;;;;;;;3.30;0.95;;;20.00;51.80;;;;;;20792411;28;20599;-73
2022/07/28 12:58:31;;;;;;;2.15;0.55;;;20.00;51.90;;;;;;20823929;28;20034;-72
2022/07/28 13:08:42;;;;;;;2.22;0.73;;;20.00;51.90;;;;;;20798958;28;20470;-72
2022/07/28 13:18:54;;;;;;;1.15;0.47;;;20.10;51.90;;;;;;20813473;28;20040;-73
2022/07/28 13:29:02;;;;;;;1.92;0.50;;;20.20;51.90;;;;;;20805648;28;20042;-71
2022/07/28 13:39:03;;;;;;;2.47;0.88;;;20.30;52.60;;;;;;20820621;28;20037;-72
2022/07/28 13:49:03;;;;;;;2.80;0.60;;;20.40;52.00;;;;;;20805530;28;20041;-72
2022/07/28 13:59:04;;;;;;;0.70;0.40;;;20.50;51.80;;;;;;20812356;28;20041;-73
2022/07/28 14:09:04;;;;;;;0.93;0.40;;;20.60;51.70;;;;;;20818843;28;20368;-83
2022/07/28 14:19:05;;;;;;;1.20;0.50;;;20.70;51.50;;;;;;20823087;28;20073;-78
2022/07/28 14:29:06;;;;;;;1.13;0.30;;;20.80;51.40;;;;;;20817963;28;20284;-75
2022/07/28 14:39:07;;;;;;;1.13;0.47;;;20.90;51.10;;;;;;20829849;28;20111;-76
2022/07/28 14:49:07;;;;;;;3.28;0.63;;;21.00;50.90;;;;;;20821165;28;20484;-79
2022/07/28 14:59:08;;;;;;;1.00;0.60;;;21.10;50.90;;;;;;20801547;28;20718;-76
2022/07/28 15:09:09;;;;;;;5.20;0.75;;;21.10;51.50;;;;;;20829793;28;20091;-77
2022/07/28 15:19:09;;;;;;;1.43;0.60;;;21.20;50.70;;;;;;20815618;28;20136;-76
2022/07/28 15:29:10;;;;;;;1.65;0.63;;;21.20;50.70;;;;;;20832272;28;20060;-76
2022/07/28 15:39:13;;;;;;;1.02;0.75;;;21.30;50.70;;;;;;20831477;28;20065;-76
2022/07/28 15:49:13;;;;;;;1.75;0.47;;;21.40;50.60;;;;;;20814384;28;20395;-76
2022/07/28 15:59:14;;;;;;;1.55;0.52;;;21.40;50.60;;;;;;20813290;28;20045;-75
2022/07/28 16:09:15;;;;;;;1.02;0.43;;;21.50;50.60;;;;;;20821733;28;20065;-76
2022/07/28 16:19:15;;;;;;;1.00;0.35;;;21.40;50.50;;;;;;20828270;28;20036;-76
2022/07/28 16:29:17;;;;;;;0.65;0.45;;;21.50;50.60;;;;;;20826556;28;20049;-75
2022/07/28 16:39:17;;;;;;;1.25;0.60;;;21.50;50.60;;;;;;20810625;28;20399;-75
2022/07/28 16:49:18;;;;;;;0.40;0.20;;;21.50;50.70;;;;;;20827141;28;20113;-75
2022/07/28 16:59:18;;;;;;;1.13;0.40;;;21.50;50.70;;;;;;20791741;28;20049;-75
2022/07/28 17:09:19;;;;;;;1.42;0.45;;;21.50;50.80;;;;;;20832388;28;20084;-75
2022/07/28 17:19:20;;;;;;;0.82;0.43;;;21.40;50.80;;;;;;20807136;28;20120;-75
2022/07/28 17:29:21;;;;;;;0.90;0.30;;;21.40;50.90;;;;;;20822858;28;20095;-76
2022/07/28 17:39:23;;;;;;;0.57;0.40;;;21.40;51.00;;;;;;20789688;28;20045;-75
2022/07/28 17:49:24;;;;;;;0.63;0.28;;;21.40;51.10;;;;;;20788694;28;20075;-75
2022/07/28 17:59:25;;;;;;;0.98;0.30;;;21.40;51.10;;;;;;20804304;28;20141;-75
2022/07/28 18:09:26;;;;;;;0.50;0.30;;;21.40;51.20;;;;;;20813193;28;20077;-75
2022/07/28 18:19:26;;;;;;;1.00;0.40;;;21.30;51.20;;;;;;20820205;28;20150;-75
2022/07/28 18:29:27;;;;;;;0.70;0.30;;;21.20;51.20;;;;;;20781225;28;20474;-75
2022/07/28 18:39:28;;;;;;;0.55;0.25;;;21.20;51.40;;;;;;20803612;28;20404;-74
2022/07/28 18:49:28;;;;;;;0.38;0.30;;;21.20;51.50;;;;;;20797733;28;20373;-75
2022/07/28 18:59:29;;;;;;;0.40;0.30;;;21.10;51.60;;;;;;20830873;28;20486;-75
2022/07/28 19:09:29;;;;;;;0.45;0.15;;;21.10;51.70;;;;;;20843037;28;20488;-75
2022/07/28 19:19:31;;;;;;;0.52;0.25;;;21.10;51.80;;;;;;20816409;28;20064;-75
2022/07/28 19:29:32;;;;;;;0.47;0.40;;;21.10;51.80;;;;;;20794744;28;20072;-74
2022/07/28 19:39:34;;;;;;;0.85;0.43;;;21.00;51.80;;;;;;20797626;28;20380;-75
2022/07/28 19:49:34;;;;;;;0.85;0.43;;;21.00;51.90;;;;;;20809655;28;20091;-76
2022/07/28 19:59:35;;;;;;;0.80;0.37;;;21.00;51.90;;;;;;20831402;28;20037;-77
2022/07/28 20:09:35;;;;;;;0.38;0.30;;;21.00;52.00;;;;;;20836091;28;20163;-77
2022/07/28 20:19:36;;;;;;;0.75;0.40;;;21.00;52.00;;;;;;20827735;28;20049;-77
2022/07/28 20:29:37;;;;;;;0.52;0.20;;;20.90;52.00;;;;;;20794889;28;20558;-77
2022/07/28 20:39:37;;;;;;;0.40;0.32;;;20.90;52.00;;;;;;20809729;28;20496;-77
2022/07/28 20:49:38;;;;;;;1.05;0.32;;;20.90;52.00;;;;;;20808714;28;20191;-76
2022/07/28 20:59:38;;;;;;;0.50;0.37;;;20.90;52.00;;;;;;20799646;28;20041;-76
2022/07/28 21:09:39;;;;;;;0.47;0.30;;;20.90;52.00;;;;;;20833163;28;20696;-77
2022/07/28 21:19:40;;;;;;;0.57;0.40;;;20.90;52.00;;;;;;20823187;28;20365;-76
2022/07/28 21:29:40;;;;;;;0.20;0.20;;;20.90;52.00;;;;;;20823857;28;20729;-76
2022/07/28 21:39:41;;;;;;;0.30;0.25;;;20.80;52.00;;;;;;20789678;28;20179;-76
2022/07/28 21:49:42;;;;;;;0.20;0.20;;;20.90;52.10;;;;;;20805896;28;20041;-76
2022/07/28 21:59:42;;;;;;;0.30;0.30;;;20.80;52.10;;;;;;20805922;28;20128;-76
2022/07/28 22:09:43;;;;;;;0.65;0.65;;;20.80;52.10;;;;;;20828091;28;20138;-76
2022/07/28 22:19:43;;;;;;;0.75;0.30;;;20.80;52.10;;;;;;20820428;28;20120;-76
2022/07/28 22:29:44;;;;;;;0.47;0.32;;;20.80;52.20;;;;;;20809565;28;20048;-76
2022/07/28 22:39:45;;;;;;;0.45;0.40;;;20.80;52.20;;;;;;20814646;28;20037;-76
2022/07/28 22:49:45;;;;;;;0.45;0.45;;;20.80;52.20;;;;;;20835869;28;20112;-76
2022/07/28 22:59:46;;;;;;;1.00;0.68;;;20.80;52.20;;;;;;20834346;28;20431;-76
2022/07/28 23:09:47;;;;;;;0.32;0.30;;;20.80;52.30;;;;;;20826173;28;20037;-76
2022/07/28 23:19:47;;;;;;;1.05;0.40;;;20.80;52.30;;;;;;20832601;28;20041;-76
2022/07/28 23:29:48;;;;;;;0.43;0.40;;;20.80;52.30;;;;;;20815860;28;20037;-76
2022/07/28 23:39:49;;;;;;;0.43;0.40;;;20.70;52.30;;;;;;20814874;28;20124;-76
2022/07/28 23:49:49;;;;;;;1.27;0.30;;;20.80;52.30;;;;;;20824928;28;20029;-76
2022/07/28 23:59:51;;;;;;;0.77;0.40;;;20.70;52.30;;;;;;20809357;28;20068;-76
